createdAt,value
2023-05-08T00:03:29.211Z,58.66
2023-05-08T00:08:30.746Z,58.20
2023-05-08T00:13:32.068Z,58.39
2023-05-08T00:18:33.422Z,58.79
2023-05-08T00:23:34.852Z,58.84
2023-05-08T00:28:36.213Z,58.80
2023-05-08T00:33:37.571Z,59.06
2023-05-08T00:38:38.968Z,59.15
2023-05-08T00:43:40.496Z,59.20
2023-05-08T00:48:42.383Z,59.38
2023-05-08T00:53:45.251Z,59.39
2023-05-08T00:58:48.028Z,59.35
2023-05-08T01:03:49.914Z,59.22
2023-05-08T01:08:51.420Z,59.82
2023-05-08T01:14:13.435Z,59.88
2023-05-08T01:19:48.711Z,59.85
2023-05-08T01:25:09.446Z,59.74
2023-05-08T01:30:15.483Z,59.76
2023-05-08T01:35:27.577Z,59.52
2023-05-08T01:41:03.262Z,59.56
2023-05-08T01:46:09.651Z,59.49
2023-05-08T01:51:23.614Z,59.47
2023-05-08T01:56:28.554Z,59.75
2023-05-08T02:01:33.234Z,59.67
2023-05-08T02:06:36.662Z,59.62
2023-05-08T02:11:39.653Z,59.70
2023-05-08T02:16:43.267Z,59.59
2023-05-08T02:21:46.271Z,59.82
2023-05-08T02:26:50.000Z,59.84
2023-05-08T02:31:54.216Z,60.23
2023-05-08T02:36:55.937Z,60.10
2023-05-08T02:41:57.867Z,59.99
2023-05-08T02:47:25.784Z,59.89
2023-05-08T02:52:49.160Z,60.09
2023-05-08T02:58:04.008Z,60.04
2023-05-08T03:03:11.997Z,60.48
2023-05-08T03:08:20.754Z,60.14
2023-05-08T03:13:22.871Z,60.50
2023-05-08T03:18:32.156Z,60.71
2023-05-08T03:23:35.934Z,61.17
2023-05-08T03:28:38.523Z,61.07
2023-05-08T03:33:42.439Z,61.16
2023-05-08T03:38:44.159Z,61.13
2023-05-08T03:43:46.199Z,60.96
2023-05-08T03:48:50.272Z,60.90
2023-05-08T03:53:51.615Z,61.02
2023-05-08T03:59:09.612Z,61.41
2023-05-08T04:04:19.513Z,61.71
2023-05-08T04:09:30.571Z,61.80
2023-05-08T04:14:37.834Z,61.93
2023-05-08T04:19:43.103Z,61.59
2023-05-08T04:24:49.031Z,61.32
2023-05-08T04:29:50.473Z,61.60
2023-05-08T04:34:52.784Z,61.80
2023-05-08T04:39:54.303Z,61.91
2023-05-08T04:44:55.669Z,61.96
2023-05-08T04:49:57.430Z,62.12
2023-05-08T04:54:59.407Z,62.10
2023-05-08T05:00:00.803Z,62.46
2023-05-08T05:05:02.181Z,62.62
2023-05-08T05:10:04.202Z,62.62
2023-05-08T05:15:06.127Z,62.55
2023-05-08T05:20:08.852Z,62.63
2023-05-08T05:25:10.598Z,62.63
2023-05-08T05:30:12.467Z,63.03
2023-05-08T05:35:14.170Z,63.03
2023-05-08T05:40:15.637Z,62.98
2023-05-08T05:45:17.102Z,62.88
2023-05-08T05:50:18.796Z,62.75
2023-05-08T05:55:20.455Z,62.84
2023-05-08T06:00:22.203Z,62.49
2023-05-08T06:05:23.750Z,62.99
2023-05-08T06:10:25.276Z,62.82
2023-05-08T06:15:26.748Z,62.78
2023-05-08T06:20:28.260Z,62.61
2023-05-08T06:25:30.875Z,62.48
2023-05-08T06:30:32.280Z,62.45
2023-05-08T06:35:33.688Z,62.23
2023-05-08T06:40:35.069Z,62.82
2023-05-08T06:45:36.456Z,63.43
2023-05-08T06:50:39.289Z,64.27
2023-05-08T06:55:43.582Z,65.13
2023-05-08T07:00:44.943Z,65.15
2023-05-08T07:05:46.362Z,65.02
2023-05-08T07:10:47.680Z,65.57
2023-05-08T07:15:49.131Z,66.12
2023-05-08T07:20:50.557Z,66.34
2023-05-08T07:25:51.889Z,66.26
2023-05-08T07:30:53.234Z,66.11
2023-05-08T07:35:54.572Z,65.95
2023-05-08T07:40:57.564Z,65.85
2023-05-08T07:45:59.319Z,66.02
2023-05-08T07:51:00.795Z,65.71
2023-05-08T07:56:02.461Z,65.75
2023-05-08T08:01:03.950Z,65.59
2023-05-08T08:06:05.436Z,65.33
2023-05-08T08:11:07.560Z,65.08
2023-05-08T08:16:08.944Z,65.29
2023-05-08T08:21:10.310Z,64.86
2023-05-08T08:26:11.678Z,64.72
2023-05-08T08:31:13.206Z,64.32
2023-05-08T08:36:15.754Z,64.47
2023-05-08T08:41:17.210Z,63.92
2023-05-08T08:46:23.717Z,64.17
2023-05-08T08:51:31.819Z,64.35
2023-05-08T08:56:36.031Z,64.14
2023-05-08T09:01:41.867Z,63.91
2023-05-08T09:06:45.211Z,63.95
2023-05-08T09:11:46.818Z,63.96
2023-05-08T09:16:51.377Z,64.07
2023-05-08T09:21:52.965Z,63.68
2023-05-08T09:26:54.350Z,63.31
2023-05-08T09:31:56.111Z,63.21
2023-05-08T09:37:06.322Z,62.80
2023-05-08T09:42:07.679Z,62.13
2023-05-08T09:47:11.155Z,62.04
2023-05-08T09:52:15.845Z,61.74
2023-05-08T09:57:17.541Z,61.27
2023-05-08T10:02:20.221Z,61.26
2023-05-08T10:07:29.665Z,60.61
2023-05-08T10:12:32.008Z,60.54
2023-05-08T10:17:51.600Z,60.24
2023-05-08T10:22:55.625Z,59.72
2023-05-08T10:28:42.588Z,59.80
2023-05-08T10:33:46.498Z,59.12
2023-05-08T10:38:49.711Z,58.48
2023-05-08T10:43:51.937Z,58.39
2023-05-08T10:49:24.426Z,57.96
2023-05-08T10:54:48.069Z,57.20
2023-05-08T10:59:49.493Z,56.43
2023-05-08T11:04:51.208Z,56.63
2023-05-08T11:09:53.717Z,56.28
2023-05-08T11:15:07.053Z,56.28
2023-05-08T11:20:09.055Z,55.84
2023-05-08T11:25:10.856Z,55.05
2023-05-08T11:30:35.101Z,54.63
2023-05-08T11:35:54.669Z,54.36
2023-05-08T11:41:07.508Z,54.18
2023-05-08T11:46:17.436Z,53.74
2023-05-08T11:51:21.631Z,53.43
2023-05-08T11:56:23.050Z,52.90
2023-05-08T12:01:24.428Z,52.12
2023-05-08T12:06:27.599Z,52.67
2023-05-08T12:11:28.998Z,52.01
2023-05-08T12:16:30.442Z,51.89
2023-05-08T12:21:32.005Z,52.79
2023-05-08T12:26:40.130Z,52.77
2023-05-08T12:31:41.726Z,52.43
2023-05-08T12:36:43.259Z,52.33
2023-05-08T12:41:52.646Z,51.77
2023-05-08T12:46:56.200Z,51.30
2023-05-08T12:52:06.658Z,50.75
2023-05-08T12:57:12.222Z,50.42
2023-05-08T13:02:18.856Z,49.73
2023-05-08T13:07:20.367Z,49.31
2023-05-08T13:12:21.724Z,48.39
2023-05-08T13:17:23.142Z,47.93
2023-05-08T13:22:26.586Z,46.40
2023-05-08T13:27:28.293Z,46.23
2023-05-08T13:32:29.745Z,45.51
2023-05-08T13:37:31.104Z,45.11
2023-05-08T13:42:32.451Z,44.30
2023-05-08T13:47:33.993Z,45.92
2023-05-08T13:52:35.768Z,44.74
2023-05-08T13:57:37.420Z,44.29
2023-05-08T14:02:38.888Z,44.25
2023-05-08T14:07:40.755Z,45.10
2023-05-08T14:12:42.174Z,44.50
2023-05-08T14:17:43.683Z,44.17
2023-05-08T14:27:46.837Z,43.48
2023-05-08T14:32:48.642Z,44.54
2023-05-08T14:37:50.048Z,44.27
2023-05-08T14:42:51.491Z,43.75
2023-05-08T14:47:52.897Z,44.00
2023-05-08T14:52:54.494Z,44.15
2023-05-08T14:57:56.410Z,45.04
2023-05-08T15:02:57.895Z,45.17
2023-05-08T15:07:59.618Z,45.53
2023-05-08T15:13:01.149Z,45.90
2023-05-08T15:18:02.662Z,47.49
2023-05-08T15:23:04.509Z,45.65
2023-05-08T15:28:06.316Z,45.46
2023-05-08T15:33:07.686Z,44.76
2023-05-08T15:38:09.261Z,44.52
2023-05-08T15:43:10.726Z,44.08
2023-05-08T15:48:12.373Z,44.49
2023-05-08T15:53:14.181Z,44.10
2023-05-08T15:58:15.831Z,44.99
2023-05-08T16:03:17.455Z,45.04
2023-05-08T16:08:19.120Z,44.96
2023-05-08T16:13:21.036Z,45.34
2023-05-08T16:18:22.862Z,45.28
2023-05-08T16:23:24.481Z,44.79
2023-05-08T16:28:25.918Z,45.10
2023-05-08T16:33:27.335Z,45.90
2023-05-08T16:38:28.714Z,46.34
2023-05-08T16:43:30.438Z,46.69
2023-05-08T16:48:31.854Z,46.85
2023-05-08T16:53:33.196Z,47.56
2023-05-08T16:58:34.574Z,47.69
2023-05-08T17:03:36.249Z,47.62
2023-05-08T17:08:37.712Z,47.96
2023-05-08T17:13:39.079Z,48.04
2023-05-08T17:18:40.505Z,47.78
2023-05-08T17:23:41.943Z,47.68
2023-05-08T17:28:43.440Z,48.19
2023-05-08T17:33:45.024Z,48.48
2023-05-08T17:38:47.178Z,48.65
2023-05-08T17:43:48.579Z,48.56
2023-05-08T17:48:49.987Z,48.98
2023-05-08T17:53:52.980Z,49.18
2023-05-08T17:58:55.467Z,49.48
2023-05-08T18:03:56.903Z,49.75
2023-05-08T18:08:58.268Z,50.33
2023-05-08T18:13:59.607Z,50.52
2023-05-08T18:19:00.996Z,50.66
2023-05-08T18:24:02.513Z,51.00
2023-05-08T18:29:03.894Z,51.19
2023-05-08T18:34:05.262Z,51.65
2023-05-08T18:39:06.625Z,52.01
2023-05-08T18:44:09.228Z,52.17
2023-05-08T18:49:10.648Z,52.64
2023-05-08T18:54:12.010Z,53.02
2023-05-08T18:59:13.523Z,53.55
2023-05-08T19:04:15.135Z,54.09
2023-05-08T19:09:16.597Z,54.00
2023-05-08T19:14:17.926Z,54.30
2023-05-08T19:19:19.331Z,53.89
2023-05-08T19:24:23.923Z,54.42
2023-05-08T19:29:25.341Z,54.44
2023-05-08T19:34:26.820Z,54.67
2023-05-08T19:39:28.154Z,54.66
2023-05-08T19:44:31.425Z,54.82
2023-05-08T19:49:32.761Z,54.46
2023-05-08T19:54:34.157Z,55.07
2023-05-08T19:59:35.541Z,55.25
2023-05-08T20:04:48.699Z,55.04
2023-05-08T20:09:58.328Z,55.37
2023-05-08T20:14:59.689Z,55.79
2023-05-08T20:20:01.233Z,55.95
2023-05-08T20:25:04.424Z,56.12
2023-05-08T20:30:06.811Z,55.98
2023-05-08T20:35:08.807Z,56.48
2023-05-08T20:40:10.844Z,56.79
2023-05-08T20:45:12.557Z,56.88
2023-05-08T20:50:16.038Z,57.33
2023-05-08T20:55:17.685Z,57.86
2023-05-08T21:00:19.466Z,57.95
2023-05-08T21:05:20.859Z,58.28
2023-05-08T21:10:22.207Z,58.65
2023-05-08T21:15:24.236Z,58.83
2023-05-08T21:20:25.595Z,58.99
2023-05-08T21:25:26.992Z,59.34
2023-05-08T21:30:28.730Z,59.62
2023-05-08T21:35:30.207Z,60.15
2023-05-08T21:40:31.531Z,60.41
2023-05-08T21:45:33.154Z,60.41
2023-05-08T21:50:34.564Z,60.66
2023-05-08T21:55:36.050Z,60.83
2023-05-08T22:00:37.454Z,60.66
2023-05-08T22:05:38.801Z,60.81
2023-05-08T22:10:40.512Z,60.79
2023-05-08T22:15:42.415Z,60.83
2023-05-08T22:20:43.863Z,61.06
2023-05-08T22:25:45.227Z,61.06
2023-05-08T22:30:46.624Z,61.40
2023-05-08T22:35:47.955Z,61.56
2023-05-08T22:40:49.391Z,61.86
2023-05-08T22:45:50.865Z,62.06
2023-05-08T22:50:52.549Z,62.36
2023-05-08T22:55:53.917Z,62.70
2023-05-08T23:00:55.746Z,63.20
2023-05-08T23:05:57.213Z,63.27
2023-05-08T23:10:58.556Z,62.87
2023-05-08T23:15:59.929Z,62.90
2023-05-08T23:21:08.212Z,63.13
2023-05-08T23:26:09.622Z,63.65
2023-05-08T23:31:11.081Z,63.46
2023-05-08T23:36:12.485Z,63.51
2023-05-08T23:41:14.061Z,63.42
2023-05-08T23:46:15.812Z,63.29
2023-05-08T23:51:17.211Z,63.27
2023-05-08T23:56:18.612Z,63.51
